sensor_id;sensor_type;location;lat;lon;timestamp;pressure;altitude;pressure_sealevel;temperature;humidity
34586;BME280;20816;50.950;11.108;2023-01-27T00:00:35;98891.16;;;-1.53;100.00
34586;BME280;20816;50.950;11.108;2023-01-27T00:03:01;98886.22;;;-1.47;100.00
34586;BME280;20816;50.950;11.108;2023-01-27T00:05:28;98884.31;;;-1.52;100.00
34586;BME280;20816;50.950;11.108;2023-01-27T00:07:55;98873.97;;;-1.54;100.00
34586;BME280;20816;50.950;11.108;2023-01-27T00:10:24;98881.78;;;-1.51;100.00
34586;BME280;20816;50.950;11.108;2023-01-27T00:12:51;98876.66;;;-1.49;100.00
34586;BME280;20816;50.950;11.108;2023-01-27T00:15:54;98880.09;;;-1.49;100.00
34586;BME280;20816;50.950;11.108;2023-01-27T00:18:21;98884.09;;;-1.58;100.00
34586;BME280;20816;50.950;11.108;2023-01-27T00:20:49;98879.94;;;-1.55;100.00
34586;BME280;20816;50.950;11.108;2023-01-27T00:23:34;98874.94;;;-1.49;100.00
34586;BME280;20816;50.950;11.108;2023-01-27T00:26:19;98876.41;;;-1.57;100.00
34586;BME280;20816;50.950;11.108;2023-01-27T00:28:46;98872.09;;;-1.58;100.00
34586;BME280;20816;50.950;11.108;2023-01-27T00:31:15;98868.69;;;-1.57;100.00
34586;BME280;20816;50.950;11.108;2023-01-27T00:34:00;98871.47;;;-1.51;100.00
34586;BME280;20816;50.950;11.108;2023-01-27T00:36:28;98874.94;;;-1.49;100.00
34586;BME280;20816;50.950;11.108;2023-01-27T00:38:55;98864.69;;;-1.47;100.00
34586;BME280;20816;50.950;11.108;2023-01-27T00:41:22;98866.50;;;-1.45;100.00
34586;BME280;20816;50.950;11.108;2023-01-27T00:43:51;98861.34;;;-1.45;100.00
34586;BME280;20816;50.950;11.108;2023-01-27T00:46:20;98871.66;;;-1.45;100.00
34586;BME280;20816;50.950;11.108;2023-01-27T00:48:47;98876.88;;;-1.42;100.00
34586;BME280;20816;50.950;11.108;2023-01-27T00:51:15;98871.72;;;-1.42;100.00
34586;BME280;20816;50.950;11.108;2023-01-27T00:53:42;98876.81;;;-1.45;100.00
34586;BME280;20816;50.950;11.108;2023-01-27T00:56:09;98878.47;;;-1.47;100.00
34586;BME280;20816;50.950;11.108;2023-01-27T00:58:36;98884.53;;;-1.45;100.00
34586;BME280;20816;50.950;11.108;2023-01-27T01:01:06;98874.94;;;-1.49;100.00
34586;BME280;20816;50.950;11.108;2023-01-27T01:03:34;98874.94;;;-1.49;100.00
34586;BME280;20816;50.950;11.108;2023-01-27T01:06:04;98873.47;;;-1.41;100.00
34586;BME280;20816;50.950;11.108;2023-01-27T01:08:32;98875.22;;;-1.39;100.00
34586;BME280;20816;50.950;11.108;2023-01-27T01:10:59;98887.00;;;-1.48;100.00
34586;BME280;20816;50.950;11.108;2023-01-27T01:13:26;98887.84;;;-1.49;100.00
34586;BME280;20816;50.950;11.108;2023-01-27T01:15:54;98876.69;;;-1.48;100.00
34586;BME280;20816;50.950;11.108;2023-01-27T01:18:22;98873.47;;;-1.41;100.00
34586;BME280;20816;50.950;11.108;2023-01-27T01:20:48;98876.88;;;-1.42;100.00
34586;BME280;20816;50.950;11.108;2023-01-27T01:23:15;98880.38;;;-1.39;100.00
34586;BME280;20816;50.950;11.108;2023-01-27T01:25:42;98877.00;;;-1.38;100.00
34586;BME280;20816;50.950;11.108;2023-01-27T01:28:09;98876.16;;;-1.37;100.00
34586;BME280;20816;50.950;11.108;2023-01-27T01:30:36;98872.78;;;-1.35;100.00
34586;BME280;20816;50.950;11.108;2023-01-27T01:33:03;98877.00;;;-1.38;100.00
34586;BME280;20816;50.950;11.108;2023-01-27T01:35:30;98872.75;;;-1.36;100.00
34586;BME280;20816;50.950;11.108;2023-01-27T01:37:57;98877.06;;;-1.35;100.00
34586;BME280;20816;50.950;11.108;2023-01-27T01:40:24;98871.91;;;-1.35;100.00
34586;BME280;20816;50.950;11.108;2023-01-27T01:42:58;98877.88;;;-1.38;100.00
34586;BME280;20816;50.950;11.108;2023-01-27T01:47:59;98877.03;;;-1.37;100.00
34586;BME280;20816;50.950;11.108;2023-01-27T01:50:29;98879.66;;;-1.35;100.00
34586;BME280;20816;50.950;11.108;2023-01-27T01:52:56;98878.81;;;-1.34;100.00
34586;BME280;20816;50.950;11.108;2023-01-27T01:55:24;98882.28;;;-1.34;100.00
34586;BME280;20816;50.950;11.108;2023-01-27T01:57:51;98880.50;;;-1.36;100.00
34586;BME280;20816;50.950;11.108;2023-01-27T02:00:18;98874.19;;;-1.46;100.00
34586;BME280;20816;50.950;11.108;2023-01-27T02:02:46;98875.06;;;-1.46;100.00
34586;BME280;20816;50.950;11.108;2023-01-27T02:05:22;98873.31;;;-1.47;100.00
34586;BME280;20816;50.950;11.108;2023-01-27T02:08:15;98878.56;;;-1.44;100.00
34586;BME280;20816;50.950;11.108;2023-01-27T02:10:44;98871.72;;;-1.42;100.00
34586;BME280;20816;50.950;11.108;2023-01-27T02:13:11;98871.72;;;-1.42;100.00
34586;BME280;20816;50.950;11.108;2023-01-27T02:15:38;98878.63;;;-1.41;100.00
34586;BME280;20816;50.950;11.108;2023-01-27T02:18:05;98883.09;;;-1.35;100.00
34586;BME280;20816;50.950;11.108;2023-01-27T02:25:59;98873.75;;;-1.31;100.00
34586;BME280;20816;50.950;11.108;2023-01-27T02:28:29;98875.53;;;-1.30;100.00
34586;BME280;20816;50.950;11.108;2023-01-27T02:30:56;98883.09;;;-1.35;100.00
34586;BME280;20816;50.950;11.108;2023-01-27T02:33:24;98887.59;;;-1.29;100.00
34586;BME280;20816;50.950;11.108;2023-01-27T02:38:26;98891.94;;;-1.27;100.00
34586;BME280;20816;50.950;11.108;2023-01-27T02:40:56;98893.66;;;-1.27;100.00
34586;BME280;20816;50.950;11.108;2023-01-27T02:43:25;98890.19;;;-1.28;100.00
34586;BME280;20816;50.950;11.108;2023-01-27T02:45:52;98886.09;;;-1.21;100.00
34586;BME280;20816;50.950;11.108;2023-01-27T02:48:19;98882.50;;;-1.26;100.00
34586;BME280;20816;50.950;11.108;2023-01-27T02:50:46;98882.56;;;-1.23;100.00
34586;BME280;20816;50.950;11.108;2023-01-27T02:53:12;98879.13;;;-1.24;100.00
34586;BME280;20816;50.950;11.108;2023-01-27T02:55:39;98872.38;;;-1.20;100.00
34586;BME280;20816;50.950;11.108;2023-01-27T02:58:05;98869.84;;;-1.19;100.00
34586;BME280;20816;50.950;11.108;2023-01-27T03:00:32;98880.22;;;-1.16;100.00
34586;BME280;20816;50.950;11.108;2023-01-27T03:02:59;98882.75;;;-1.17;100.00
34586;BME280;20816;50.950;11.108;2023-01-27T03:05:26;98890.53;;;-1.16;100.00
34586;BME280;20816;50.950;11.108;2023-01-27T03:07:53;98885.44;;;-1.14;100.00
34586;BME280;20816;50.950;11.108;2023-01-27T03:10:20;98893.91;;;-1.18;100.00
34586;BME280;20816;50.950;11.108;2023-01-27T03:12:46;98895.63;;;-1.19;100.00
34586;BME280;20816;50.950;11.108;2023-01-27T03:15:13;98896.50;;;-1.18;100.00
34586;BME280;20816;50.950;11.108;2023-01-27T03:18:09;98901.66;;;-1.18;100.00
34586;BME280;20816;50.950;11.108;2023-01-27T03:20:40;98899.06;;;-1.18;100.00
34586;BME280;20816;50.950;11.108;2023-01-27T03:23:06;98898.91;;;-1.23;100.00
34586;BME280;20816;50.950;11.108;2023-01-27T03:25:33;98903.41;;;-1.17;100.00
34586;BME280;20816;50.950;11.108;2023-01-27T03:28:00;98903.41;;;-1.17;100.00
34586;BME280;20816;50.950;11.108;2023-01-27T03:30:27;98905.97;;;-1.17;100.00
34586;BME280;20816;50.950;11.108;2023-01-27T03:32:54;98904.28;;;-1.17;100.00
34586;BME280;20816;50.950;11.108;2023-01-27T03:35:23;98912.16;;;-1.12;100.00
34586;BME280;20816;50.950;11.108;2023-01-27T03:38:00;98915.56;;;-1.13;100.00
34586;BME280;20816;50.950;11.108;2023-01-27T03:40:45;98908.81;;;-1.08;100.00
34586;BME280;20816;50.950;11.108;2023-01-27T03:43:30;98907.56;;;-1.22;100.00
34586;BME280;20816;50.950;11.108;2023-01-27T03:46:15;98915.44;;;-1.16;100.00
34586;BME280;20816;50.950;11.108;2023-01-27T03:48:48;98914.63;;;-1.15;100.00
34586;BME280;20816;50.950;11.108;2023-01-27T03:51:16;98918.25;;;-1.08;100.00
34586;BME280;20816;50.950;11.108;2023-01-27T03:53:43;98916.69;;;-1.03;100.00
34586;BME280;20816;50.950;11.108;2023-01-27T03:56:10;98919.94;;;-1.10;100.00
34586;BME280;20816;50.950;11.108;2023-01-27T03:58:38;98913.94;;;-1.09;100.00
34586;BME280;20816;50.950;11.108;2023-01-27T04:03:41;98912.41;;;-1.03;100.00
34586;BME280;20816;50.950;11.108;2023-01-27T04:06:29;98915.78;;;-1.05;100.00
34586;BME280;20816;50.950;11.108;2023-01-27T04:09:34;98905.59;;;-1.01;100.00
34586;BME280;20816;50.950;11.108;2023-01-27T04:12:03;98903.84;;;-1.02;100.00
34586;BME280;20816;50.950;11.108;2023-01-27T04:14:38;98912.41;;;-1.03;100.00
34586;BME280;20816;50.950;11.108;2023-01-27T04:17:12;98923.00;;;-0.94;100.00
34586;BME280;20816;50.950;11.108;2023-01-27T04:19:40;98923.84;;;-0.95;100.00
34586;BME280;20816;50.950;11.108;2023-01-27T04:22:06;98919.50;;;-0.96;100.00
34586;BME280;20816;50.950;11.108;2023-01-27T04:24:34;98918.59;;;-0.98;100.00
34586;BME280;20816;50.950;11.108;2023-01-27T04:27:04;98919.50;;;-0.96;100.00
34586;BME280;20816;50.950;11.108;2023-01-27T04:29:36;98919.75;;;-0.87;100.00
34586;BME280;20816;50.950;11.108;2023-01-27T04:32:04;98914.78;;;-0.80;100.00
34586;BME280;20816;50.950;11.108;2023-01-27T04:34:35;98919.75;;;-0.87;100.00
34586;BME280;20816;50.950;11.108;2023-01-27T04:37:02;98926.75;;;-0.82;100.00
34586;BME280;20816;50.950;11.108;2023-01-27T04:39:31;98925.63;;;-0.92;100.00
34586;BME280;20816;50.950;11.108;2023-01-27T04:41:58;98933.38;;;-0.91;100.00
34586;BME280;20816;50.950;11.108;2023-01-27T04:44:25;98941.97;;;-0.92;100.00
34586;BME280;20816;50.950;11.108;2023-01-27T04:46:52;98950.81;;;-0.83;100.00
34586;BME280;20816;50.950;11.108;2023-01-27T04:49:20;98949.31;;;-0.75;100.00
34586;BME280;20816;50.950;11.108;2023-01-27T04:51:48;98936.34;;;-0.78;100.00
34586;BME280;20816;50.950;11.108;2023-01-27T04:54:15;98941.34;;;-0.83;100.00
34586;BME280;20816;50.950;11.108;2023-01-27T04:56:54;98949.31;;;-0.75;100.00
34586;BME280;20816;50.950;11.108;2023-01-27T04:59:21;98950.06;;;-0.79;100.00
34586;BME280;20816;50.950;11.108;2023-01-27T05:01:48;98961.31;;;-0.77;100.00
34586;BME280;20816;50.950;11.108;2023-01-27T05:04:14;98957.81;;;-0.79;100.00
34586;BME280;20816;50.950;11.108;2023-01-27T05:06:41;98958.75;;;-0.76;100.00
34586;BME280;20816;50.950;11.108;2023-01-27T05:09:08;98956.34;;;-0.71;100.00
34586;BME280;20816;50.950;11.108;2023-01-27T05:11:34;98947.09;;;-0.63;100.00
34586;BME280;20816;50.950;11.108;2023-01-27T05:14:01;98943.69;;;-0.62;100.00
34586;BME280;20816;50.950;11.108;2023-01-27T05:16:27;98937.69;;;-0.61;100.00
34586;BME280;20816;50.950;11.108;2023-01-27T05:18:55;98938.44;;;-0.65;100.00
34586;BME280;20816;50.950;11.108;2023-01-27T05:21:23;98951.34;;;-0.65;100.00
34586;BME280;20816;50.950;11.108;2023-01-27T05:23:50;98951.25;;;-0.68;100.00
34586;BME280;20816;50.950;11.108;2023-01-27T05:26:23;98953.25;;;-0.58;100.00
34586;BME280;20816;50.950;11.108;2023-01-27T05:28:51;98951.22;;;-0.70;100.00
34586;BME280;20816;50.950;11.108;2023-01-27T05:31:26;98945.16;;;-0.70;100.00
34586;BME280;20816;50.950;11.108;2023-01-27T05:33:55;98956.63;;;-0.61;100.00
34586;BME280;20816;50.950;11.108;2023-01-27T05:36:23;98954.84;;;-0.63;100.00
34586;BME280;20816;50.950;11.108;2023-01-27T05:38:50;98959.19;;;-0.61;100.00
34586;BME280;20816;50.950;11.108;2023-01-27T05:41:18;98959.03;;;-0.67;100.00
34586;BME280;20816;50.950;11.108;2023-01-27T05:43:46;98958.31;;;-0.61;100.00
34586;BME280;20816;50.950;11.108;2023-01-27T05:46:18;98949.75;;;-0.60;100.00
34586;BME280;20816;50.950;11.108;2023-01-27T05:48:47;98948.81;;;-0.64;100.00
34586;BME280;20816;50.950;11.108;2023-01-27T05:51:16;98959.91;;;-0.66;100.00
34586;BME280;20816;50.950;11.108;2023-01-27T05:53:43;98961.69;;;-0.65;100.00
34586;BME280;20816;50.950;11.108;2023-01-27T05:56:12;98965.06;;;-0.66;100.00
34586;BME280;20816;50.950;11.108;2023-01-27T05:58:39;98963.22;;;-0.70;100.00
34586;BME280;20816;50.950;11.108;2023-01-27T06:01:11;98960.19;;;-0.57;100.00
34586;BME280;20816;50.950;11.108;2023-01-27T06:03:38;98965.16;;;-0.63;100.00
34586;BME280;20816;50.950;11.108;2023-01-27T06:06:06;98965.94;;;-0.66;100.00
34586;BME280;20816;50.950;11.108;2023-01-27T06:08:33;98949.69;;;-0.63;100.00
34586;BME280;20816;50.950;11.108;2023-01-27T06:11:01;98968.50;;;-0.66;100.00
34586;BME280;20816;50.950;11.108;2023-01-27T06:13:27;98966.91;;;-0.62;100.00
34586;BME280;20816;50.950;11.108;2023-01-27T06:15:54;98970.41;;;-0.60;100.00
34586;BME280;20816;50.950;11.108;2023-01-27T06:18:22;98969.53;;;-0.61;100.00
34586;BME280;20816;50.950;11.108;2023-01-27T06:20:49;98969.50;;;-0.62;100.00
34586;BME280;20816;50.950;11.108;2023-01-27T06:23:16;98971.41;;;-0.55;100.00
34586;BME280;20816;50.950;11.108;2023-01-27T06:25:45;98974.69;;;-0.61;100.00
34586;BME280;20816;50.950;11.108;2023-01-27T06:28:13;98980.63;;;-0.65;100.00
34586;BME280;20816;50.950;11.108;2023-01-27T06:30:54;98980.03;;;-0.54;100.00
34586;BME280;20816;50.950;11.108;2023-01-27T06:33:22;98975.81;;;-0.51;100.00
34586;BME280;20816;50.950;11.108;2023-01-27T06:35:48;98979.06;;;-0.58;100.00
34586;BME280;20816;50.950;11.108;2023-01-27T06:38:15;98978.97;;;-0.61;100.00
34586;BME280;20816;50.950;11.108;2023-01-27T06:40:42;98988.47;;;-0.60;100.00
34586;BME280;20816;50.950;11.108;2023-01-27T06:43:13;98989.53;;;-0.53;100.00
34586;BME280;20816;50.950;11.108;2023-01-27T06:45:39;98990.13;;;-0.62;100.00
34586;BME280;20816;50.950;11.108;2023-01-27T06:48:06;98993.16;;;-0.47;100.00
34586;BME280;20816;50.950;11.108;2023-01-27T06:50:36;98987.81;;;-0.53;100.00
34586;BME280;20816;50.950;11.108;2023-01-27T06:53:04;98999.88;;;-0.52;100.00
34586;BME280;20816;50.950;11.108;2023-01-27T06:55:32;98999.66;;;-0.60;100.00
34586;BME280;20816;50.950;11.108;2023-01-27T06:58:00;98994.66;;;-0.55;100.00
34586;BME280;20816;50.950;11.108;2023-01-27T07:00:27;99006.75;;;-0.52;100.00
34586;BME280;20816;50.950;11.108;2023-01-27T07:02:55;99010.88;;;-0.59;100.00
34586;BME280;20816;50.950;11.108;2023-01-27T07:05:22;99010.56;;;-0.70;100.00
34586;BME280;20816;50.950;11.108;2023-01-27T07:07:49;99011.81;;;-0.57;100.00
34586;BME280;20816;50.950;11.108;2023-01-27T07:10:16;99009.97;;;-0.61;100.00
34586;BME280;20816;50.950;11.108;2023-01-27T07:12:42;99011.88;;;-0.54;100.00
34586;BME280;20816;50.950;11.108;2023-01-27T07:15:10;99011.63;;;-0.63;100.00
34586;BME280;20816;50.950;11.108;2023-01-27T07:17:37;99005.66;;;-0.61;100.00
34586;BME280;20816;50.950;11.108;2023-01-27T07:20:06;99015.31;;;-0.55;100.00
34586;BME280;20816;50.950;11.108;2023-01-27T07:22:34;99012.06;;;-0.48;100.00
34586;BME280;20816;50.950;11.108;2023-01-27T07:25:01;99017.31;;;-0.45;100.00
34586;BME280;20816;50.950;11.108;2023-01-27T07:27:28;99016.97;;;-0.57;100.00
34586;BME280;20816;50.950;11.108;2023-01-27T07:29:55;99029.13;;;-0.53;100.00
34586;BME280;20816;50.950;11.108;2023-01-27T07:32:22;99019.63;;;-0.54;100.00
34586;BME280;20816;50.950;11.108;2023-01-27T07:34:50;99027.63;;;-0.45;100.00
34586;BME280;20816;50.950;11.108;2023-01-27T07:37:16;99025.00;;;-0.46;100.00
34586;BME280;20816;50.950;11.108;2023-01-27T07:39:43;99033.75;;;-0.41;100.00
34586;BME280;20816;50.950;11.108;2023-01-27T07:42:09;99030.47;;;-0.36;100.00
34586;BME280;20816;50.950;11.108;2023-01-27T07:44:36;99033.63;;;-0.46;100.00
34586;BME280;20816;50.950;11.108;2023-01-27T07:47:03;99034.72;;;-0.38;100.00
34586;BME280;20816;50.950;11.108;2023-01-27T07:49:30;99039.25;;;-0.31;100.00
34586;BME280;20816;50.950;11.108;2023-01-27T07:51:57;99050.22;;;-0.38;100.00
34586;BME280;20816;50.950;11.108;2023-01-27T07:54:24;99043.75;;;-0.23;100.00
34586;BME280;20816;50.950;11.108;2023-01-27T07:56:50;99041.81;;;-0.31;100.00
34586;BME280;20816;50.950;11.108;2023-01-27T07:59:17;99053.25;;;-0.22;100.00
34586;BME280;20816;50.950;11.108;2023-01-27T08:01:43;99056.31;;;-0.36;100.00
34586;BME280;20816;50.950;11.108;2023-01-27T08:04:13;99062.38;;;-0.34;100.00
34586;BME280;20816;50.950;11.108;2023-01-27T08:06:40;99061.47;;;-0.36;100.00
34586;BME280;20816;50.950;11.108;2023-01-27T08:09:07;99064.31;;;-0.26;100.00
34586;BME280;20816;50.950;11.108;2023-01-27T08:11:33;99064.41;;;-0.23;100.00
34586;BME280;20816;50.950;11.108;2023-01-27T08:14:00;99067.97;;;-0.18;100.00
34586;BME280;20816;50.950;11.108;2023-01-27T08:16:27;99072.81;;;-0.31;100.00
34586;BME280;20816;50.950;11.108;2023-01-27T08:18:54;99069.84;;;-0.14;100.00
34586;BME280;20816;50.950;11.108;2023-01-27T08:21:22;99074.34;;;-0.07;100.00
34586;BME280;20816;50.950;11.108;2023-01-27T08:23:48;99066.59;;;-0.07;100.00
34586;BME280;20816;50.950;11.108;2023-01-27T08:26:15;99069.06;;;-0.10;100.00
34586;BME280;20816;50.950;11.108;2023-01-27T08:28:42;99073.69;;;0.00;100.00
34586;BME280;20816;50.950;11.108;2023-01-27T08:31:11;99081.44;;;0.00;100.00
34586;BME280;20816;50.950;11.108;2023-01-27T08:33:38;99077.25;;;0.05;100.00
34586;BME280;20816;50.950;11.108;2023-01-27T08:36:09;99085.13;;;0.10;100.00
34586;BME280;20816;50.950;11.108;2023-01-27T08:38:36;99080.88;;;0.12;100.00
34586;BME280;20816;50.950;11.108;2023-01-27T08:41:09;99084.41;;;0.15;100.00
34586;BME280;20816;50.950;11.108;2023-01-27T08:43:36;99080.19;;;0.17;100.00
34586;BME280;20816;50.950;11.108;2023-01-27T08:46:04;99094.75;;;0.15;100.00
34586;BME280;20816;50.950;11.108;2023-01-27T08:48:32;99084.50;;;0.18;100.00
34586;BME280;20816;50.950;11.108;2023-01-27T08:51:00;99089.25;;;0.35;100.00
34586;BME280;20816;50.950;11.108;2023-01-27T08:53:27;99095.56;;;0.46;100.00
34586;BME280;20816;50.950;11.108;2023-01-27T08:55:55;99091.50;;;0.55;100.00
34586;BME280;20816;50.950;11.108;2023-01-27T08:58:23;99094.94;;;0.54;100.00
34586;BME280;20816;50.950;11.108;2023-01-27T09:00:50;99091.84;;;0.68;100.00
34586;BME280;20816;50.950;11.108;2023-01-27T09:03:16;99096.03;;;0.64;100.00
34586;BME280;20816;50.950;11.108;2023-01-27T09:05:43;99104.31;;;0.84;100.00
34586;BME280;20816;50.950;11.108;2023-01-27T09:08:10;99096.66;;;0.89;100.00
34586;BME280;20816;50.950;11.108;2023-01-27T09:10:38;99102.59;;;0.84;100.00
34586;BME280;20816;50.950;11.108;2023-01-27T09:13:06;99101.81;;;0.89;100.00
34586;BME280;20816;50.950;11.108;2023-01-27T09:15:35;99102.97;;;0.98;100.00
34586;BME280;20816;50.950;11.108;2023-01-27T09:18:04;99101.19;;;0.97;100.00
34586;BME280;20816;50.950;11.108;2023-01-27T09:20:32;99105.63;;;1.03;100.00
34586;BME280;20816;50.950;11.108;2023-01-27T09:23:00;99108.31;;;1.06;100.00
34586;BME280;20816;50.950;11.108;2023-01-27T09:25:27;99113.78;;;1.18;100.00
34586;BME280;20816;50.950;11.108;2023-01-27T09:27:55;99113.97;;;1.27;100.00
34586;BME280;20816;50.950;11.108;2023-01-27T09:30:22;99108.75;;;1.24;100.00
34586;BME280;20816;50.950;11.108;2023-01-27T09:32:49;99107.91;;;1.25;100.00
34586;BME280;20816;50.950;11.108;2023-01-27T09:35:16;99109.47;;;1.19;100.00
34586;BME280;20816;50.950;11.108;2023-01-27T09:37:48;99104.09;;;1.11;100.00
34586;BME280;20816;50.950;11.108;2023-01-27T09:40:27;99104.69;;;1.35;100.00
34586;BME280;20816;50.950;11.108;2023-01-27T09:48:36;99106.72;;;1.49;100.00
34586;BME280;20816;50.950;11.108;2023-01-27T09:51:18;99111.47;;;1.30;100.00
34586;BME280;20816;50.950;11.108;2023-01-27T09:54:01;99101.34;;;1.03;100.00
34586;BME280;20816;50.950;11.108;2023-01-27T10:02:32;99114.28;;;1.03;100.00
34586;BME280;20816;50.950;11.108;2023-01-27T10:05:11;99112.19;;;0.89;100.00
34586;BME280;20816;50.950;11.108;2023-01-27T10:10:57;99113.78;;;0.83;100.00
34586;BME280;20816;50.950;11.108;2023-01-27T10:13:42;99115.78;;;0.94;100.00
34586;BME280;20816;50.950;11.108;2023-01-27T10:16:20;99117.72;;;1.04;100.00
34586;BME280;20816;50.950;11.108;2023-01-27T10:21:44;99112.44;;;0.98;100.00
34586;BME280;20816;50.950;11.108;2023-01-27T10:26:55;99123.22;;;1.16;100.00
34586;BME280;20816;50.950;11.108;2023-01-27T10:32:06;99120.00;;;1.26;100.00
34586;BME280;20816;50.950;11.108;2023-01-27T10:34:44;99113.09;;;1.27;100.00
34586;BME280;20816;50.950;11.108;2023-01-27T10:37:33;99123.13;;;1.13;100.00
34586;BME280;20816;50.950;11.108;2023-01-27T10:40:13;99123.38;;;1.22;100.00
34586;BME280;20816;50.950;11.108;2023-01-27T10:42:56;99113.28;;;1.34;100.00
34586;BME280;20816;50.950;11.108;2023-01-27T10:45:37;99122.00;;;1.38;100.00
34586;BME280;20816;50.950;11.108;2023-01-27T10:50:59;99118.75;;;1.47;100.00
34586;BME280;20816;50.950;11.108;2023-01-27T10:56:11;99127.09;;;1.35;100.00
34586;BME280;20816;50.950;11.108;2023-01-27T11:01:35;99114.88;;;1.29;100.00
34586;BME280;20816;50.950;11.108;2023-01-27T11:04:16;99110.19;;;1.13;100.00
34586;BME280;20816;50.950;11.108;2023-01-27T11:06:45;99113.53;;;1.07;100.00
34586;BME280;20816;50.950;11.108;2023-01-27T11:09:30;99116.41;;;1.21;100.00
34586;BME280;20816;50.950;11.108;2023-01-27T11:12:05;99118.91;;;1.17;100.00
34586;BME280;20816;50.950;11.108;2023-01-27T11:14:45;99119.25;;;0.96;100.00
34586;BME280;20816;50.950;11.108;2023-01-27T11:17:30;99116.47;;;0.88;100.00
34586;BME280;20816;50.950;11.108;2023-01-27T11:20:03;99114.19;;;0.99;100.00
34586;BME280;20816;50.950;11.108;2023-01-27T11:22:39;99109.00;;;0.99;100.00
34586;BME280;20816;50.950;11.108;2023-01-27T11:25:28;99112.69;;;1.08;100.00
34586;BME280;20816;50.950;11.108;2023-01-27T11:36:39;99098.13;;;1.13;100.00
34586;BME280;20816;50.950;11.108;2023-01-27T11:39:08;99097.16;;;1.08;100.00
34586;BME280;20816;50.950;11.108;2023-01-27T11:41:37;99097.38;;;1.18;100.00
34586;BME280;20816;50.950;11.108;2023-01-27T11:44:14;99099.81;;;1.11;100.00
34586;BME280;20816;50.950;11.108;2023-01-27T11:46:44;99090.34;;;1.13;100.00
34586;BME280;20816;50.950;11.108;2023-01-27T11:49:18;99097.50;;;1.24;100.00
34586;BME280;20816;50.950;11.108;2023-01-27T11:51:47;99092.31;;;1.22;100.00
34586;BME280;20816;50.950;11.108;2023-01-27T11:54:24;99089.78;;;1.25;100.00
34586;BME280;20816;50.950;11.108;2023-01-27T11:56:53;99086.94;;;1.15;100.00
34586;BME280;20816;50.950;11.108;2023-01-27T11:59:27;99085.25;;;1.15;100.00
34586;BME280;20816;50.950;11.108;2023-01-27T12:02:00;99083.69;;;1.23;100.00
34586;BME280;20816;50.950;11.108;2023-01-27T12:07:04;99081.94;;;1.22;100.00
34586;BME280;20816;50.950;11.108;2023-01-27T12:09:37;99083.06;;;1.33;100.00
34586;BME280;20816;50.950;11.108;2023-01-27T12:14:57;99071.38;;;1.52;100.00
34586;BME280;20816;50.950;11.108;2023-01-27T12:19:58;99063.75;;;1.58;100.00
34586;BME280;20816;50.950;11.108;2023-01-27T12:22:30;99058.53;;;1.57;100.00
34586;BME280;20816;50.950;11.108;2023-01-27T12:25:04;99067.22;;;1.59;100.00
34586;BME280;20816;50.950;11.108;2023-01-27T12:27:39;99063.97;;;1.69;100.00
34586;BME280;20816;50.950;11.108;2023-01-27T12:30:22;99064.66;;;1.62;100.00
34586;BME280;20816;50.950;11.108;2023-01-27T12:32:49;99073.25;;;1.59;100.00
34586;BME280;20816;50.950;11.108;2023-01-27T12:35:31;99068.56;;;1.42;100.00
34586;BME280;20816;50.950;11.108;2023-01-27T12:38:18;99071.81;;;1.31;100.00
34586;BME280;20816;50.950;11.108;2023-01-27T12:40:47;99058.00;;;1.32;100.00
34586;BME280;20816;50.950;11.108;2023-01-27T12:43:17;99061.44;;;1.31;100.00
34586;BME280;20816;50.950;11.108;2023-01-27T12:48:48;99058.75;;;1.28;100.00
34586;BME280;20816;50.950;11.108;2023-01-27T12:51:23;99066.31;;;1.19;100.00
34586;BME280;20816;50.950;11.108;2023-01-27T12:54:21;99062.53;;;1.05;100.00
34586;BME280;20816;50.950;11.108;2023-01-27T12:56:49;99064.16;;;1.00;100.00
34586;BME280;20816;50.950;11.108;2023-01-27T12:59:18;99068.50;;;1.01;100.00
34586;BME280;20816;50.950;11.108;2023-01-27T13:02:25;99063.38;;;1.04;100.00
34586;BME280;20816;50.950;11.108;2023-01-27T13:04:58;99068.53;;;1.02;100.00
34586;BME280;20816;50.950;11.108;2023-01-27T13:07:29;99074.50;;;1.00;100.00
34586;BME280;20816;50.950;11.108;2023-01-27T13:10:05;99065.97;;;1.04;100.00
34586;BME280;20816;50.950;11.108;2023-01-27T13:12:57;99065.19;;;1.06;100.00
34586;BME280;20816;50.950;11.108;2023-01-27T13:15:25;99066.78;;;1.01;100.00
34586;BME280;20816;50.950;11.108;2023-01-27T13:17:55;99068.59;;;1.05;100.00
34586;BME280;20816;50.950;11.108;2023-01-27T13:20:39;99071.25;;;1.07;100.00
34586;BME280;20816;50.950;11.108;2023-01-27T13:23:13;99062.50;;;1.03;100.00
34586;BME280;20816;50.950;11.108;2023-01-27T13:28:48;99066.84;;;1.04;100.00
34586;BME280;20816;50.950;11.108;2023-01-27T13:33:54;99069.75;;;1.18;100.00
34586;BME280;20816;50.950;11.108;2023-01-27T13:36:37;99067.97;;;1.14;100.00
34586;BME280;20816;50.950;11.108;2023-01-27T13:42:18;99068.91;;;1.19;100.00
34586;BME280;20816;50.950;11.108;2023-01-27T13:45:02;99074.22;;;1.24;100.00
34586;BME280;20816;50.950;11.108;2023-01-27T13:52:50;99067.13;;;1.15;100.00
34586;BME280;20816;50.950;11.108;2023-01-27T13:58:18;99070.44;;;1.11;100.00
34586;BME280;20816;50.950;11.108;2023-01-27T14:01:09;99075.59;;;1.09;100.00
34586;BME280;20816;50.950;11.108;2023-01-27T14:09:46;99080.81;;;1.11;100.00
34586;BME280;20816;50.950;11.108;2023-01-27T14:12:51;99081.66;;;1.10;100.00
34586;BME280;20816;50.950;11.108;2023-01-27T14:15:28;99085.16;;;1.12;100.00
34586;BME280;20816;50.950;11.108;2023-01-27T14:20:37;99091.19;;;1.12;100.00
34586;BME280;20816;50.950;11.108;2023-01-27T14:29:20;99099.59;;;1.02;100.00
34586;BME280;20816;50.950;11.108;2023-01-27T14:31:56;99097.03;;;1.04;100.00
34586;BME280;20816;50.950;11.108;2023-01-27T14:34:39;99105.66;;;1.04;100.00
34586;BME280;20816;50.950;11.108;2023-01-27T14:43:02;99110.66;;;0.97;100.00